createdAt,value
2022-08-31T00:01:52.236Z,2.90
2022-08-31T00:04:56.411Z,3.33
2022-08-31T00:07:58.652Z,4.88
2022-08-31T00:11:01.365Z,5.35
2022-08-31T00:14:06.504Z,4.72
2022-08-31T00:17:10.615Z,4.70
2022-08-31T00:20:32.658Z,4.95
2022-08-31T00:23:36.449Z,5.35
2022-08-31T00:26:38.746Z,5.20
2022-08-31T00:29:41.035Z,6.03
2022-08-31T00:32:44.713Z,5.47
2022-08-31T00:35:47.065Z,4.97
2022-08-31T00:38:50.458Z,4.50
2022-08-31T00:41:52.750Z,4.85
2022-08-31T00:44:56.876Z,4.78
2022-08-31T00:48:01.211Z,5.35
2022-08-31T00:51:04.272Z,5.78
2022-08-31T00:54:07.853Z,5.13
2022-08-31T00:57:10.607Z,5.35
2022-08-31T01:00:15.297Z,5.70
2022-08-31T01:03:19.617Z,5.28
2022-08-31T01:06:22.636Z,5.53
2022-08-31T01:09:27.148Z,5.32
2022-08-31T01:12:29.413Z,5.00
2022-08-31T01:15:32.573Z,5.93
2022-08-31T01:18:39.151Z,5.18
2022-08-31T01:21:44.166Z,5.00
2022-08-31T01:24:48.513Z,5.30
2022-08-31T01:27:50.887Z,4.25
2022-08-31T01:31:08.693Z,4.68
2022-08-31T01:34:14.151Z,4.70
2022-08-31T01:37:16.548Z,4.40
2022-08-31T01:40:20.433Z,4.28
2022-08-31T01:43:24.033Z,4.47
2022-08-31T01:46:26.990Z,4.18
2022-08-31T01:49:29.445Z,4.57
2022-08-31T01:52:34.011Z,4.63
2022-08-31T01:55:37.779Z,4.40
2022-08-31T01:58:40.691Z,5.25
2022-08-31T02:02:01.527Z,4.70
2022-08-31T02:05:05.312Z,5.40
2022-08-31T02:08:09.887Z,5.00
2022-08-31T02:11:13.758Z,4.43
2022-08-31T02:14:17.270Z,4.95
2022-08-31T02:17:19.731Z,5.45
2022-08-31T02:20:22.103Z,4.80
2022-08-31T02:23:25.684Z,4.72
2022-08-31T02:26:29.731Z,4.35
2022-08-31T02:29:32.147Z,5.18
2022-08-31T02:32:34.677Z,4.93
2022-08-31T02:35:38.297Z,4.68
2022-08-31T02:38:41.594Z,4.45
2022-08-31T02:41:46.707Z,5.43
2022-08-31T02:44:49.189Z,5.03
2022-08-31T02:47:51.781Z,5.05
2022-08-31T02:51:19.849Z,5.20
2022-08-31T02:54:22.855Z,5.32
2022-08-31T02:57:28.473Z,6.00
2022-08-31T03:00:32.277Z,5.38
2022-08-31T03:03:35.216Z,5.35
2022-08-31T03:06:37.634Z,5.82
2022-08-31T03:09:40.107Z,5.70
2022-08-31T03:12:48.177Z,5.28
2022-08-31T03:15:52.177Z,5.85
2022-08-31T03:18:54.562Z,5.70
2022-08-31T03:21:56.899Z,5.93
2022-08-31T03:25:00.001Z,6.45
2022-08-31T03:28:03.814Z,5.75
2022-08-31T03:31:09.493Z,5.50
2022-08-31T03:34:15.962Z,5.15
2022-08-31T03:37:21.531Z,5.78
2022-08-31T03:40:24.589Z,5.22
2022-08-31T03:43:31.683Z,5.95
2022-08-31T03:46:34.483Z,5.40
2022-08-31T03:49:37.393Z,5.20
2022-08-31T03:52:48.925Z,5.65
2022-08-31T03:56:01.835Z,6.20
2022-08-31T03:59:08.109Z,6.82
2022-08-31T04:02:30.370Z,6.28
2022-08-31T04:05:57.764Z,5.90
2022-08-31T04:09:35.495Z,6.45
2022-08-31T04:12:56.282Z,7.07
2022-08-31T04:16:13.515Z,7.10
2022-08-31T04:19:50.735Z,6.78
2022-08-31T04:23:04.900Z,7.82
2022-08-31T04:26:15.886Z,7.80
2022-08-31T04:29:18.534Z,7.65
2022-08-31T04:32:22.915Z,6.88
2022-08-31T04:35:27.429Z,7.38
2022-08-31T04:38:29.797Z,7.50
2022-08-31T04:41:35.260Z,7.38
2022-08-31T04:44:38.444Z,7.28
2022-08-31T04:47:42.944Z,7.53
2022-08-31T04:50:45.433Z,7.00
2022-08-31T04:53:48.630Z,7.72
2022-08-31T04:56:50.965Z,8.85
2022-08-31T05:00:05.032Z,7.60
2022-08-31T05:03:27.203Z,7.60
2022-08-31T05:06:33.167Z,8.15
2022-08-31T05:09:36.042Z,9.68
2022-08-31T05:12:38.780Z,9.10
2022-08-31T05:15:42.652Z,8.25
2022-08-31T05:18:50.237Z,8.48
2022-08-31T05:21:52.801Z,9.05
2022-08-31T05:25:01.989Z,8.32
2022-08-31T05:28:37.659Z,8.95
2022-08-31T05:31:59.481Z,9.32
2022-08-31T05:35:07.103Z,8.80
2022-08-31T05:38:09.686Z,9.60
2022-08-31T05:41:26.557Z,10.05
2022-08-31T05:44:39.237Z,10.18
2022-08-31T05:47:48.052Z,10.45
2022-08-31T05:51:05.325Z,11.05
2022-08-31T05:54:14.750Z,10.82
2022-08-31T05:57:26.662Z,11.95
2022-08-31T06:00:34.831Z,11.15
2022-08-31T06:03:58.426Z,11.15
2022-08-31T06:07:02.456Z,12.27
2022-08-31T06:10:15.775Z,11.57
2022-08-31T06:13:19.985Z,11.10
2022-08-31T06:16:26.877Z,12.73
2022-08-31T06:19:32.883Z,11.68
2022-08-31T06:22:37.336Z,12.32
2022-08-31T06:25:56.528Z,11.63
2022-08-31T06:29:00.500Z,12.20
2022-08-31T06:32:08.229Z,11.27
2022-08-31T06:35:14.601Z,11.32
2022-08-31T06:38:43.629Z,12.68
2022-08-31T06:42:07.658Z,11.63
2022-08-31T06:45:31.923Z,12.25
2022-08-31T06:48:54.912Z,11.15
2022-08-31T06:52:00.473Z,12.73
2022-08-31T06:55:06.109Z,13.07
2022-08-31T06:58:26.834Z,13.00
2022-08-31T07:01:49.305Z,12.23
2022-08-31T07:04:59.330Z,13.88
2022-08-31T07:08:01.755Z,14.55
2022-08-31T07:11:11.543Z,12.82
2022-08-31T07:14:15.907Z,13.27
2022-08-31T07:17:18.701Z,13.57
2022-08-31T07:20:21.436Z,14.20
2022-08-31T07:23:25.265Z,13.32
2022-08-31T07:26:42.446Z,13.57
2022-08-31T07:29:45.232Z,14.02
2022-08-31T07:32:56.235Z,13.20
2022-08-31T07:35:59.517Z,12.63
2022-08-31T07:39:43.846Z,12.82
2022-08-31T07:42:50.599Z,14.32
2022-08-31T07:45:54.089Z,14.13
2022-08-31T07:48:59.924Z,14.10
2022-08-31T07:52:24.031Z,14.45
2022-08-31T07:55:47.903Z,14.52
2022-08-31T07:59:14.916Z,14.38
2022-08-31T08:02:18.730Z,13.85
2022-08-31T08:05:23.546Z,13.88
2022-08-31T08:09:24.080Z,13.77
2022-08-31T08:12:51.145Z,13.45
2022-08-31T08:16:13.533Z,14.65
2022-08-31T08:19:25.753Z,15.07
2022-08-31T08:22:50.467Z,15.75
2022-08-31T08:26:08.822Z,14.23
2022-08-31T08:29:33.696Z,12.77
2022-08-31T08:32:40.618Z,13.55
2022-08-31T08:35:43.211Z,14.50
2022-08-31T08:38:51.143Z,17.73
2022-08-31T08:41:56.231Z,14.52
2022-08-31T08:44:58.669Z,13.25
2022-08-31T08:48:06.867Z,12.25
2022-08-31T08:51:10.754Z,12.50
2022-08-31T08:54:30.443Z,12.70
2022-08-31T08:57:34.711Z,13.48
2022-08-31T09:00:38.709Z,12.63
2022-08-31T09:03:53.226Z,12.13
2022-08-31T09:07:04.854Z,11.82
2022-08-31T09:10:14.855Z,11.15
2022-08-31T09:13:23.310Z,12.05
2022-08-31T09:16:33.403Z,12.52
2022-08-31T09:19:55.961Z,11.18
2022-08-31T09:23:00.750Z,12.35
2022-08-31T09:26:08.253Z,14.00
2022-08-31T09:29:31.664Z,11.73
2022-08-31T09:32:35.898Z,11.35
2022-08-31T09:35:42.745Z,11.07
2022-08-31T09:38:46.987Z,10.85
2022-08-31T09:41:50.126Z,11.25
2022-08-31T09:44:52.407Z,9.85
2022-08-31T09:48:01.247Z,9.43
2022-08-31T09:51:10.683Z,8.85
2022-08-31T09:54:37.529Z,10.68
2022-08-31T09:57:58.962Z,9.70
2022-08-31T10:01:12.898Z,10.55
2022-08-31T10:04:18.232Z,9.10
2022-08-31T10:07:34.258Z,10.65
2022-08-31T10:10:40.818Z,8.52
2022-08-31T10:13:53.795Z,10.27
2022-08-31T10:17:00.932Z,9.43
2022-08-31T10:20:09.749Z,9.07
2022-08-31T10:23:20.893Z,8.18
2022-08-31T10:26:29.513Z,8.13
2022-08-31T10:29:40.205Z,8.65
2022-08-31T10:32:47.626Z,7.88
2022-08-31T10:35:52.616Z,9.05
2022-08-31T10:38:57.915Z,9.00
2022-08-31T10:42:05.274Z,8.75
2022-08-31T10:45:16.307Z,8.02
2022-08-31T10:48:26.111Z,8.30
2022-08-31T10:51:34.792Z,8.25
2022-08-31T10:54:43.733Z,8.60
2022-08-31T10:57:51.049Z,8.48
2022-08-31T11:01:00.700Z,8.27
2022-08-31T11:04:23.133Z,10.05
2022-08-31T11:07:33.652Z,8.80
2022-08-31T11:10:47.583Z,8.95
2022-08-31T11:14:01.615Z,8.07
2022-08-31T11:17:31.960Z,8.35
2022-08-31T11:20:49.110Z,7.55
2022-08-31T11:24:07.030Z,7.53
2022-08-31T11:27:14.416Z,7.63
2022-08-31T11:30:24.277Z,7.30
2022-08-31T11:33:28.307Z,7.82
2022-08-31T11:36:47.979Z,7.45
2022-08-31T11:39:51.353Z,7.22
2022-08-31T11:43:01.019Z,8.00
2022-08-31T11:46:37.849Z,7.28
2022-08-31T11:49:47.352Z,7.38
2022-08-31T11:52:53.609Z,7.20
2022-08-31T11:55:59.193Z,6.75
2022-08-31T11:59:27.157Z,6.85
2022-08-31T12:02:45.327Z,6.20
2022-08-31T12:05:51.007Z,6.10
2022-08-31T12:09:15.010Z,6.22
2022-08-31T12:12:28.327Z,5.85
2022-08-31T12:15:43.737Z,5.88
2022-08-31T12:19:13.626Z,6.35
2022-08-31T12:22:48.902Z,5.78
2022-08-31T12:26:04.188Z,6.80
2022-08-31T12:29:24.821Z,5.50
2022-08-31T12:32:31.757Z,5.57
2022-08-31T12:35:34.098Z,5.75
2022-08-31T12:38:37.561Z,5.70
2022-08-31T12:41:43.203Z,5.05
2022-08-31T12:44:50.149Z,5.35
2022-08-31T12:48:01.246Z,6.18
2022-08-31T12:51:14.533Z,6.13
2022-08-31T12:54:44.148Z,5.45
2022-08-31T12:57:57.219Z,5.47
2022-08-31T13:01:09.122Z,5.50
2022-08-31T13:04:17.028Z,5.90
2022-08-31T13:07:23.853Z,5.65
2022-08-31T13:10:29.767Z,6.20
2022-08-31T13:13:34.045Z,5.00
2022-08-31T13:16:40.809Z,5.43
2022-08-31T13:19:55.411Z,4.70
2022-08-31T13:23:02.061Z,4.65
2022-08-31T13:26:15.668Z,4.43
2022-08-31T13:29:45.309Z,4.68
2022-08-31T13:33:54.347Z,4.20
2022-08-31T13:37:13.076Z,4.20
2022-08-31T13:40:33.822Z,4.47
2022-08-31T13:43:42.216Z,4.10
2022-08-31T13:47:26.594Z,3.85
2022-08-31T13:51:05.808Z,3.88
2022-08-31T13:54:12.646Z,3.22
2022-08-31T13:57:32.843Z,3.75
2022-08-31T14:00:52.954Z,4.78
2022-08-31T14:04:08.766Z,4.35
2022-08-31T14:08:06.015Z,5.07
2022-08-31T14:11:25.075Z,5.47
2022-08-31T14:15:01.181Z,4.65
2022-08-31T14:18:24.646Z,5.10
2022-08-31T14:21:39.967Z,5.40
2022-08-31T14:24:47.939Z,4.50
2022-08-31T14:27:51.892Z,4.47
2022-08-31T14:34:32.347Z,4.85
2022-08-31T14:37:35.493Z,5.05
2022-08-31T14:40:38.024Z,4.93
2022-08-31T14:43:43.326Z,4.55
2022-08-31T14:46:54.104Z,4.53
2022-08-31T14:50:05.376Z,4.28
2022-08-31T14:53:11.430Z,5.43
2022-08-31T14:56:22.778Z,4.38
2022-08-31T14:59:32.765Z,4.10
2022-08-31T15:06:19.728Z,4.57
2022-08-31T15:09:25.448Z,4.80
2022-08-31T15:12:33.700Z,4.40
2022-08-31T15:15:42.901Z,4.60
2022-08-31T15:23:12.466Z,6.60
2022-08-31T15:26:21.313Z,6.55
2022-08-31T15:29:28.227Z,6.07
2022-08-31T15:32:32.183Z,5.90
2022-08-31T15:36:01.721Z,6.18
2022-08-31T15:39:07.224Z,6.70
2022-08-31T15:42:14.967Z,6.75
2022-08-31T15:45:25.402Z,6.65
2022-08-31T15:49:42.806Z,5.95
2022-08-31T15:52:48.919Z,6.00
2022-08-31T15:55:54.225Z,6.38
2022-08-31T15:59:30.596Z,5.68
2022-08-31T16:02:36.045Z,6.28
2022-08-31T16:14:21.212Z,5.70
2022-08-31T16:17:26.647Z,5.75
2022-08-31T16:20:31.368Z,6.82
2022-08-31T16:23:55.192Z,5.15
2022-08-31T16:27:18.085Z,5.35
2022-08-31T16:30:35.169Z,4.68
2022-08-31T16:33:43.442Z,5.17
2022-08-31T16:36:52.852Z,7.32
2022-08-31T16:40:10.581Z,7.72
2022-08-31T16:44:19.515Z,5.37
2022-08-31T16:47:37.531Z,4.43
2022-08-31T16:50:47.697Z,4.57
2022-08-31T16:53:52.570Z,5.13
2022-08-31T16:57:00.825Z,6.28
2022-08-31T17:00:18.998Z,5.50
2022-08-31T17:03:36.509Z,5.78
2022-08-31T17:06:48.258Z,6.57
2022-08-31T17:10:18.260Z,4.50
2022-08-31T17:13:21.108Z,4.88
2022-08-31T17:16:38.542Z,4.60
2022-08-31T17:19:54.213Z,4.30
2022-08-31T17:23:57.068Z,4.43
2022-08-31T17:28:08.748Z,4.40
2022-08-31T17:31:17.997Z,4.82
2022-08-31T17:34:25.544Z,4.80
2022-08-31T17:38:07.176Z,4.30
2022-08-31T17:41:42.291Z,5.18
2022-08-31T17:45:00.840Z,4.93
2022-08-31T17:48:30.548Z,5.65
2022-08-31T17:55:44.333Z,4.72
2022-08-31T17:58:56.750Z,4.80
2022-08-31T18:02:05.475Z,4.72
2022-08-31T18:05:13.222Z,4.70
2022-08-31T18:08:21.244Z,5.05
2022-08-31T18:11:31.081Z,5.03
2022-08-31T18:14:34.869Z,4.72
2022-08-31T18:17:37.283Z,5.28
2022-08-31T18:20:41.544Z,4.93
2022-08-31T18:23:48.247Z,5.05
2022-08-31T18:26:53.110Z,5.18
2022-08-31T18:30:10.439Z,5.22
2022-08-31T18:33:16.509Z,5.13
2022-08-31T18:36:23.850Z,5.50
2022-08-31T18:39:50.474Z,4.40
2022-08-31T18:43:11.381Z,5.45
2022-08-31T18:46:13.762Z,5.15
2022-08-31T18:50:13.041Z,5.15
2022-08-31T18:53:55.719Z,5.85
2022-08-31T18:57:00.529Z,5.57
2022-08-31T19:00:06.206Z,4.00
2022-08-31T19:03:09.171Z,4.55
2022-08-31T19:06:17.284Z,3.22
2022-08-31T19:10:14.214Z,3.70
2022-08-31T19:13:20.159Z,2.83
2022-08-31T19:16:25.421Z,3.20
2022-08-31T19:19:32.395Z,2.65
2022-08-31T19:22:41.658Z,2.63
2022-08-31T19:25:45.103Z,2.47
2022-08-31T19:29:08.739Z,2.20
2022-08-31T19:32:14.364Z,2.38
2022-08-31T19:35:21.412Z,2.83
2022-08-31T19:38:29.712Z,2.05
2022-08-31T19:41:32.467Z,2.28
2022-08-31T19:48:01.600Z,2.13
2022-08-31T19:51:15.006Z,3.10
2022-08-31T19:54:19.719Z,2.33
2022-08-31T19:57:22.572Z,2.97
2022-08-31T20:00:24.960Z,2.80
2022-08-31T20:03:31.171Z,2.55
2022-08-31T20:06:34.991Z,2.47
2022-08-31T20:09:49.331Z,3.47
2022-08-31T20:12:52.562Z,2.80
2022-08-31T20:16:00.156Z,3.50
2022-08-31T20:19:18.677Z,3.47
2022-08-31T20:22:23.704Z,3.53
2022-08-31T20:25:28.550Z,3.25
2022-08-31T20:28:30.906Z,3.65
2022-08-31T20:31:33.254Z,3.03
2022-08-31T20:34:38.210Z,3.80
2022-08-31T20:37:40.727Z,4.18
2022-08-31T20:40:44.476Z,3.60
2022-08-31T20:43:52.573Z,4.10
2022-08-31T20:47:15.119Z,3.72
2022-08-31T20:50:18.952Z,3.42
2022-08-31T20:53:25.012Z,3.67
2022-08-31T20:56:46.963Z,3.70
2022-08-31T21:00:05.405Z,3.88
2022-08-31T21:03:10.516Z,4.07
2022-08-31T21:06:14.506Z,4.18
2022-08-31T21:09:16.836Z,3.65
2022-08-31T21:12:20.954Z,3.70
2022-08-31T21:15:25.952Z,3.80
2022-08-31T21:18:29.528Z,3.80
2022-08-31T21:21:33.389Z,3.50
2022-08-31T21:24:38.219Z,3.67
2022-08-31T21:27:40.583Z,2.97
2022-08-31T21:30:43.868Z,2.92
2022-08-31T21:33:48.091Z,3.15
2022-08-31T21:36:51.824Z,3.22
2022-08-31T21:39:57.796Z,3.60
2022-08-31T21:43:03.921Z,3.47
2022-08-31T21:46:09.915Z,3.30
2022-08-31T21:49:12.374Z,2.75
2022-08-31T21:52:19.610Z,2.90
2022-08-31T21:55:21.925Z,2.95
2022-08-31T21:58:24.440Z,3.00
2022-08-31T22:01:27.634Z,2.90
2022-08-31T22:04:35.360Z,3.47
2022-08-31T22:07:41.197Z,3.75
2022-08-31T22:10:44.519Z,3.10
2022-08-31T22:13:47.897Z,3.20
2022-08-31T22:16:51.116Z,2.88
2022-08-31T22:19:53.405Z,2.83
2022-08-31T22:22:58.564Z,2.42
2022-08-31T22:26:02.033Z,2.83
2022-08-31T22:29:04.977Z,2.30
2022-08-31T22:32:11.902Z,2.33
2022-08-31T22:35:15.757Z,2.75
2022-08-31T22:38:25.376Z,2.58
2022-08-31T22:41:27.616Z,2.65
2022-08-31T22:44:37.129Z,2.65
2022-08-31T22:47:49.561Z,2.55
2022-08-31T22:50:52.447Z,2.22
2022-08-31T22:53:56.129Z,2.33
2022-08-31T22:56:58.316Z,2.03
2022-08-31T23:00:14.553Z,2.03
2022-08-31T23:03:18.138Z,1.65
2022-08-31T23:06:24.962Z,2.03
2022-08-31T23:09:30.855Z,2.72
2022-08-31T23:12:36.585Z,2.20
2022-08-31T23:15:40.024Z,2.30
2022-08-31T23:18:43.031Z,2.28
2022-08-31T23:21:56.927Z,2.28
2022-08-31T23:25:05.168Z,2.15
2022-08-31T23:28:08.607Z,1.85
2022-08-31T23:31:11.097Z,2.03
2022-08-31T23:34:13.463Z,2.40
2022-08-31T23:37:17.414Z,2.15
2022-08-31T23:40:21.035Z,2.25
2022-08-31T23:43:23.407Z,1.83
2022-08-31T23:46:25.834Z,2.22
2022-08-31T23:49:28.365Z,1.65
2022-08-31T23:52:34.267Z,1.85
2022-08-31T23:55:50.373Z,2.85
2022-08-31T23:59:03.709Z,1.90
